Time;durP1;ratioP1;P1;durP2;ratioP2;P2;SDS_P1;SDS_P2;PMS_P1;PMS_P2;Temp;Humidity;BMP_temperature;BMP_pressure;BME280_temperature;BME280_humidity;BME280_pressure;Samples;Min_cycle;Max_cycle;Signal;HPM_P1;HPM_P2
2024/02/16 00:01:59;;;;;;;4.80;4.40;;;11.30;99.90;;;;;;4967345;28;20289;-74
2024/02/16 00:04:25;;;;;;;4.17;3.87;;;11.30;99.90;;;;;;4966858;28;20293;-73
2024/02/16 00:06:51;;;;;;;5.03;4.50;;;11.20;99.90;;;;;;4967583;28;20748;-74
2024/02/16 00:09:19;;;;;;;4.30;3.90;;;11.20;99.90;;;;;;4955546;28;20298;-73
2024/02/16 00:11:48;;;;;;;4.43;4.13;;;11.20;99.90;;;;;;4948423;28;20675;-73
2024/02/16 00:14:15;;;;;;;4.37;3.97;;;11.20;99.90;;;;;;4948473;28;20218;-74
2024/02/16 00:16:42;;;;;;;4.27;3.97;;;11.20;99.90;;;;;;4948923;28;20334;-75
2024/02/16 00:19:09;;;;;;;3.97;3.73;;;11.20;99.90;;;;;;4949973;28;20242;-75
2024/02/16 00:21:35;;;;;;;4.03;3.73;;;11.20;99.90;;;;;;4948501;28;20817;-72
2024/02/16 00:24:03;;;;;;;4.07;3.77;;;11.20;99.90;;;;;;4947952;28;20245;-75
2024/02/16 00:26:31;;;;;;;4.03;3.73;;;11.10;99.90;;;;;;4948825;28;20215;-76
2024/02/16 00:28:58;;;;;;;4.03;3.73;;;11.10;99.90;;;;;;4948705;28;20315;-75
2024/02/16 00:31:25;;;;;;;4.60;4.30;;;11.10;99.90;;;;;;4950662;28;20299;-75
2024/02/16 00:33:52;;;;;;;4.60;4.20;;;11.10;99.90;;;;;;4966951;28;20242;-75
2024/02/16 00:36:19;;;;;;;4.90;4.50;;;11.10;99.90;;;;;;4952286;28;20273;-75
2024/02/16 00:38:47;;;;;;;4.27;3.97;;;11.10;99.90;;;;;;4948834;28;20310;-75
2024/02/16 00:41:19;;;;;;;5.00;4.60;;;11.10;99.90;;;;;;4948912;28;20212;-75
2024/02/16 00:43:48;;;;;;;5.50;5.00;;;11.10;99.90;;;;;;4948908;28;20630;-75
2024/02/16 00:46:14;;;;;;;5.13;4.73;;;11.10;99.90;;;;;;4962971;28;20250;-75
2024/02/16 00:48:41;;;;;;;5.63;5.20;;;11.00;99.90;;;;;;4968210;28;20203;-74
2024/02/16 00:51:08;;;;;;;6.43;5.07;;;11.00;99.90;;;;;;4967529;28;20322;-74
2024/02/16 00:53:35;;;;;;;5.70;5.20;;;11.00;99.90;;;;;;4968086;28;20301;-74
2024/02/16 00:56:02;;;;;;;6.03;5.57;;;11.00;99.90;;;;;;4967686;28;20640;-75
2024/02/16 00:58:29;;;;;;;6.77;6.07;;;11.00;99.90;;;;;;4966214;28;20686;-76
2024/02/16 01:00:57;;;;;;;6.17;5.67;;;11.00;99.90;;;;;;4967303;28;20245;-75
2024/02/16 01:03:26;;;;;;;6.67;6.07;;;11.00;99.90;;;;;;4967306;28;20758;-78
2024/02/16 01:05:53;;;;;;;6.27;5.77;;;11.00;99.90;;;;;;4970859;28;20566;-77
2024/02/16 01:08:20;;;;;;;6.60;6.07;;;11.00;99.90;;;;;;4970753;28;20297;-75
2024/02/16 01:10:47;;;;;;;6.47;5.97;;;11.10;99.90;;;;;;4971212;28;20234;-78
2024/02/16 01:13:14;;;;;;;7.53;6.67;;;11.10;99.90;;;;;;4970960;28;20623;-78
2024/02/16 01:15:41;;;;;;;7.67;6.97;;;11.10;99.90;;;;;;4971643;28;20325;-79
2024/02/16 01:18:10;;;;;;;6.80;6.20;;;11.10;99.90;;;;;;4971290;28;20211;-79
2024/02/16 01:20:36;;;;;;;7.07;6.37;;;11.10;99.90;;;;;;4971351;28;20294;-78
2024/02/16 01:23:04;;;;;;;8.30;6.73;;;11.10;99.90;;;;;;4970176;28;20266;-78
2024/02/16 01:25:32;;;;;;;7.40;6.53;;;11.10;99.90;;;;;;4962273;28;20214;-78
2024/02/16 01:27:59;;;;;;;7.10;6.50;;;11.10;99.90;;;;;;4951390;28;20218;-78
2024/02/16 01:30:26;;;;;;;7.80;7.17;;;11.10;99.90;;;;;;4962332;28;20249;-78
2024/02/16 01:32:53;;;;;;;7.37;6.60;;;11.10;99.90;;;;;;4970561;28;20238;-78
2024/02/16 01:35:21;;;;;;;7.93;6.80;;;11.10;99.90;;;;;;4970860;28;20333;-75
2024/02/16 01:37:51;;;;;;;7.50;6.80;;;11.10;99.90;;;;;;4970215;28;20297;-75
2024/02/16 01:40:18;;;;;;;10.33;7.33;;;11.10;99.90;;;;;;4970356;28;20290;-75
2024/02/16 01:42:47;;;;;;;8.03;7.33;;;11.10;99.90;;;;;;4968616;28;20670;-75
2024/02/16 01:45:15;;;;;;;7.90;7.13;;;11.00;99.90;;;;;;4969950;28;20310;-75
2024/02/16 01:47:46;;;;;;;8.67;7.67;;;11.00;99.90;;;;;;4970105;28;20211;-75
2024/02/16 01:50:15;;;;;;;8.57;7.80;;;11.00;99.90;;;;;;4969510;28;20326;-76
2024/02/16 01:52:44;;;;;;;8.67;7.97;;;11.00;99.90;;;;;;4970118;28;20301;-76
2024/02/16 01:55:12;;;;;;;9.77;8.30;;;11.00;99.90;;;;;;4969738;28;20240;-76
2024/02/16 01:57:40;;;;;;;9.13;8.23;;;11.00;99.90;;;;;;4970321;28;20245;-76
2024/02/16 02:00:08;;;;;;;9.13;8.33;;;10.90;99.90;;;;;;4969846;28;20290;-76
2024/02/16 02:02:35;;;;;;;8.93;8.10;;;10.90;99.90;;;;;;4970004;28;20286;-76
2024/02/16 02:05:03;;;;;;;9.63;8.03;;;10.90;99.90;;;;;;4964572;28;20214;-76
2024/02/16 02:07:30;;;;;;;8.83;8.00;;;10.90;99.90;;;;;;4950689;28;20220;-76
2024/02/16 02:09:58;;;;;;;8.47;7.70;;;10.90;99.90;;;;;;4950366;29;20306;-76
2024/02/16 02:12:26;;;;;;;9.17;8.30;;;10.90;99.90;;;;;;4950605;28;20217;-76
2024/02/16 02:14:53;;;;;;;9.17;8.37;;;10.80;99.90;;;;;;4950694;29;20294;-76
2024/02/16 02:17:20;;;;;;;9.33;8.53;;;10.80;99.90;;;;;;4949771;29;20714;-76
2024/02/16 02:19:47;;;;;;;9.17;8.43;;;10.80;99.90;;;;;;4950425;28;20215;-75
2024/02/16 02:22:17;;;;;;;9.30;8.30;;;10.80;99.90;;;;;;4949819;28;20697;-76
2024/02/16 02:24:44;;;;;;;10.13;9.17;;;10.80;99.90;;;;;;4950252;29;20942;-75
2024/02/16 02:27:11;;;;;;;9.57;8.77;;;10.80;99.90;;;;;;4964443;28;20220;-74
2024/02/16 02:29:38;;;;;;;9.93;8.93;;;10.80;99.90;;;;;;4951884;28;20207;-74
2024/02/16 02:32:05;;;;;;;9.80;8.87;;;10.80;99.90;;;;;;4949955;28;20246;-74
2024/02/16 02:34:32;;;;;;;10.00;8.93;;;10.80;99.90;;;;;;4950418;28;20238;-74
2024/02/16 02:36:59;;;;;;;9.47;8.67;;;10.80;99.90;;;;;;4956866;28;20274;-74
2024/02/16 02:39:28;;;;;;;10.53;9.43;;;10.80;99.90;;;;;;4969248;28;20628;-74
2024/02/16 02:41:55;;;;;;;10.27;8.83;;;10.80;99.90;;;;;;4969124;28;20302;-74
2024/02/16 02:44:22;;;;;;;9.93;8.93;;;10.80;99.90;;;;;;4969434;28;20313;-74
2024/02/16 02:46:49;;;;;;;10.20;9.20;;;10.70;99.90;;;;;;4969383;28;20302;-74
2024/02/16 02:49:15;;;;;;;10.50;8.97;;;10.70;99.90;;;;;;4968967;28;20289;-74
2024/02/16 02:51:43;;;;;;;12.63;10.07;;;10.70;99.90;;;;;;4969183;28;20306;-74
2024/02/16 02:54:10;;;;;;;10.70;9.60;;;10.70;99.90;;;;;;4961465;28;20737;-74
2024/02/16 02:56:38;;;;;;;9.80;8.90;;;10.70;99.90;;;;;;4968344;28;20266;-74
2024/02/16 02:59:05;;;;;;;9.80;8.87;;;10.80;99.90;;;;;;4955801;28;20286;-74
2024/02/16 03:01:32;;;;;;;10.63;9.53;;;10.70;99.90;;;;;;4949399;28;20271;-74
2024/02/16 03:04:00;;;;;;;10.50;9.50;;;10.70;99.90;;;;;;4949998;28;20214;-74
2024/02/16 03:06:27;;;;;;;10.73;9.80;;;10.70;99.90;;;;;;4965804;28;20218;-74
2024/02/16 03:08:54;;;;;;;10.90;9.90;;;10.70;99.90;;;;;;4968658;28;20633;-74
2024/02/16 03:11:21;;;;;;;11.80;10.30;;;10.70;99.90;;;;;;4968979;28;20235;-74
2024/02/16 03:13:49;;;;;;;11.43;10.27;;;10.70;99.90;;;;;;4968762;28;20214;-74
2024/02/16 03:16:16;;;;;;;10.60;9.60;;;10.70;99.90;;;;;;4968625;28;20313;-74
2024/02/16 03:18:44;;;;;;;11.30;10.30;;;10.70;99.90;;;;;;4968811;28;20695;-74
2024/02/16 03:21:15;;;;;;;10.87;9.87;;;10.70;99.90;;;;;;4968560;28;20613;-74
2024/02/16 03:23:42;;;;;;;11.10;10.10;;;10.70;99.90;;;;;;4968187;28;20254;-74
2024/02/16 03:26:15;;;;;;;12.00;10.80;;;10.70;99.90;;;;;;4963152;28;20298;-74
2024/02/16 03:28:44;;;;;;;12.80;10.93;;;10.70;99.90;;;;;;4963106;28;20279;-75
2024/02/16 03:31:18;;;;;;;12.00;10.63;;;10.70;99.90;;;;;;4966410;28;20199;-76
2024/02/16 03:33:44;;;;;;;11.70;10.60;;;10.70;99.90;;;;;;4968518;28;20904;-76
2024/02/16 03:36:12;;;;;;;11.33;10.33;;;10.60;99.90;;;;;;4953818;28;20674;-76
2024/02/16 03:38:41;;;;;;;12.60;11.27;;;10.70;99.90;;;;;;4949494;28;20290;-76
2024/02/16 03:41:08;;;;;;;12.57;11.37;;;10.60;99.90;;;;;;4952728;28;20231;-76
2024/02/16 03:43:35;;;;;;;11.87;10.70;;;10.60;99.90;;;;;;4968787;28;20203;-76
2024/02/16 03:46:03;;;;;;;12.90;11.50;;;10.60;99.90;;;;;;4968510;28;20792;-74
2024/02/16 03:48:31;;;;;;;11.90;10.53;;;10.60;99.90;;;;;;4965769;28;20206;-74
2024/02/16 03:50:58;;;;;;;11.77;10.57;;;10.60;99.90;;;;;;4948382;28;20231;-74
2024/02/16 03:53:25;;;;;;;12.50;11.30;;;10.60;99.90;;;;;;4949138;28;20219;-74
2024/02/16 03:55:52;;;;;;;12.93;11.17;;;10.60;99.90;;;;;;4949065;28;20580;-74
2024/02/16 03:58:20;;;;;;;12.37;11.17;;;10.60;99.90;;;;;;4948850;28;20690;-74
2024/02/16 04:00:48;;;;;;;12.40;11.20;;;10.60;99.90;;;;;;4948894;28;21167;-74
2024/02/16 04:03:15;;;;;;;14.33;11.47;;;10.60;99.90;;;;;;4948820;28;20207;-75
2024/02/16 04:05:44;;;;;;;12.70;11.40;;;10.60;99.90;;;;;;4959047;28;20313;-75
2024/02/16 04:08:11;;;;;;;11.40;10.30;;;10.60;99.90;;;;;;4967682;28;20302;-75
2024/02/16 04:10:41;;;;;;;12.60;11.20;;;10.60;99.90;;;;;;4968265;28;20215;-77
2024/02/16 04:13:07;;;;;;;11.33;10.13;;;10.60;99.90;;;;;;4968508;28;20812;-75
2024/02/16 04:15:34;;;;;;;12.20;11.00;;;10.60;99.90;;;;;;4967983;28;20266;-75
2024/02/16 04:18:01;;;;;;;11.10;10.00;;;10.60;99.90;;;;;;4968150;28;20239;-75
2024/02/16 04:20:28;;;;;;;11.00;9.90;;;10.60;99.90;;;;;;4968124;28;20638;-75
2024/02/16 04:22:56;;;;;;;11.80;10.07;;;10.60;99.90;;;;;;4967538;28;20281;-76
2024/02/16 04:25:23;;;;;;;10.90;9.80;;;10.60;99.90;;;;;;4968399;28;20314;-75
2024/02/16 04:27:50;;;;;;;11.63;10.40;;;10.60;99.90;;;;;;4966087;28;20991;-76
2024/02/16 04:30:18;;;;;;;10.90;9.80;;;10.60;99.90;;;;;;4967817;28;20624;-76
2024/02/16 04:32:45;;;;;;;10.40;9.33;;;10.60;99.90;;;;;;4972463;28;20199;-75
2024/02/16 04:35:12;;;;;;;10.63;9.63;;;10.60;99.90;;;;;;4966113;28;20215;-76
2024/02/16 04:37:39;;;;;;;9.93;8.97;;;10.60;99.90;;;;;;4965859;28;20243;-76
2024/02/16 04:40:11;;;;;;;10.93;9.83;;;10.60;99.90;;;;;;4968641;28;20305;-76
2024/02/16 04:42:40;;;;;;;10.67;9.30;;;10.60;99.90;;;;;;4967611;28;20222;-76
2024/02/16 04:45:08;;;;;;;10.63;9.57;;;10.60;99.90;;;;;;4949843;28;20246;-76
2024/02/16 04:47:35;;;;;;;10.57;9.03;;;10.60;99.90;;;;;;4950571;28;20211;-76
2024/02/16 04:50:02;;;;;;;9.90;8.90;;;10.60;99.90;;;;;;4949731;28;20231;-76
2024/02/16 04:52:29;;;;;;;9.03;8.13;;;10.60;99.90;;;;;;4950339;28;20695;-76
2024/02/16 04:54:56;;;;;;;10.47;9.10;;;10.60;99.90;;;;;;4950282;28;20215;-75
2024/02/16 04:57:24;;;;;;;9.70;8.80;;;10.50;99.90;;;;;;4950536;28;20309;-76
2024/02/16 04:59:51;;;;;;;10.57;8.63;;;10.60;99.90;;;;;;4953029;28;20710;-75
2024/02/16 05:02:18;;;;;;;8.73;7.93;;;10.60;99.90;;;;;;4958702;28;20221;-76
2024/02/16 05:04:45;;;;;;;11.67;8.47;;;10.60;99.90;;;;;;4964242;28;20298;-76
2024/02/16 05:07:12;;;;;;;10.20;8.30;;;10.60;99.90;;;;;;4963539;28;20213;-76
2024/02/16 05:09:40;;;;;;;9.50;8.10;;;10.60;99.90;;;;;;4963423;28;20239;-76
2024/02/16 05:12:10;;;;;;;9.20;8.30;;;10.60;99.90;;;;;;4961598;28;20624;-75
2024/02/16 05:14:38;;;;;;;8.83;8.03;;;10.70;99.90;;;;;;4955396;28;20317;-76
2024/02/16 05:17:05;;;;;;;9.00;8.20;;;10.60;99.90;;;;;;4964266;28;20665;-76
2024/02/16 05:19:35;;;;;;;8.53;7.53;;;10.60;99.90;;;;;;4965275;28;20309;-75
2024/02/16 05:22:02;;;;;;;8.90;7.97;;;10.60;99.90;;;;;;4956308;28;20212;-76
2024/02/16 05:24:29;;;;;;;9.83;8.90;;;10.60;99.90;;;;;;4959052;28;20237;-76
2024/02/16 05:26:56;;;;;;;9.40;8.47;;;10.60;99.90;;;;;;4966604;28;20672;-76
2024/02/16 05:29:23;;;;;;;8.37;7.57;;;10.50;99.90;;;;;;4959789;28;20233;-75
2024/02/16 05:31:53;;;;;;;8.63;7.77;;;10.50;99.90;;;;;;4962691;28;20245;-76
2024/02/16 05:34:20;;;;;;;8.07;7.37;;;10.60;99.90;;;;;;4962386;28;20245;-75
2024/02/16 05:36:47;;;;;;;8.13;7.43;;;10.50;99.90;;;;;;4959575;28;20245;-75
2024/02/16 05:39:26;;;;;;;8.70;7.73;;;10.60;99.90;;;;;;4961800;28;20238;-76
2024/02/16 05:41:53;;;;;;;9.13;7.73;;;10.60;99.90;;;;;;4951760;28;20297;-76
2024/02/16 05:44:20;;;;;;;8.53;7.63;;;10.50;99.90;;;;;;4965881;28;20245;-75
2024/02/16 05:46:47;;;;;;;9.33;8.33;;;10.50;99.90;;;;;;4960325;28;20218;-75
2024/02/16 05:49:16;;;;;;;9.57;7.90;;;10.50;99.90;;;;;;4959121;28;20841;-76
2024/02/16 05:52:00;;;;;;;8.27;7.57;;;10.50;99.90;;;;;;4962068;28;20293;-75
2024/02/16 05:54:27;;;;;;;8.80;7.90;;;10.50;99.90;;;;;;4958694;28;20725;-75
2024/02/16 05:56:54;;;;;;;8.30;7.53;;;10.40;99.90;;;;;;4957738;28;20246;-75
2024/02/16 05:59:22;;;;;;;8.00;7.20;;;10.50;99.90;;;;;;4959338;28;20199;-75
2024/02/16 06:01:48;;;;;;;8.57;7.70;;;10.50;99.90;;;;;;4960187;28;20208;-75
2024/02/16 06:04:17;;;;;;;9.20;7.57;;;10.50;99.90;;;;;;4960216;28;20997;-76
2024/02/16 06:06:44;;;;;;;9.17;7.60;;;10.50;99.90;;;;;;4962829;28;20803;-75
2024/02/16 06:09:11;;;;;;;8.20;7.40;;;10.50;99.90;;;;;;4959221;28;20294;-76
2024/02/16 06:11:38;;;;;;;8.20;7.40;;;10.50;99.90;;;;;;4956361;28;20354;-75
2024/02/16 06:14:05;;;;;;;7.83;7.03;;;10.50;99.90;;;;;;4954321;28;20207;-76
2024/02/16 06:16:32;;;;;;;8.57;7.40;;;10.50;99.90;;;;;;4964586;28;20291;-75
2024/02/16 06:19:00;;;;;;;7.93;7.23;;;10.50;99.90;;;;;;4955962;28;20680;-75
2024/02/16 06:21:28;;;;;;;8.17;7.27;;;10.40;99.90;;;;;;4958987;28;20211;-75
2024/02/16 06:23:55;;;;;;;8.60;7.80;;;10.40;99.90;;;;;;4977122;28;20233;-75
2024/02/16 06:26:22;;;;;;;8.57;7.07;;;10.50;99.90;;;;;;4958496;28;20216;-75
2024/02/16 06:28:49;;;;;;;8.20;7.43;;;10.40;99.90;;;;;;4955082;28;20302;-75
2024/02/16 06:31:16;;;;;;;7.47;6.77;;;10.40;99.90;;;;;;4953829;28;20200;-75
2024/02/16 06:33:42;;;;;;;7.60;6.73;;;10.40;99.90;;;;;;4963144;28;20289;-76
2024/02/16 06:36:10;;;;;;;9.00;7.53;;;10.40;99.90;;;;;;4951757;28;20286;-75
2024/02/16 06:38:38;;;;;;;7.40;6.80;;;10.40;99.90;;;;;;4963749;28;20238;-75
2024/02/16 06:41:05;;;;;;;8.10;6.97;;;10.40;99.90;;;;;;4959294;28;20322;-75
2024/02/16 06:43:32;;;;;;;7.37;6.67;;;10.30;99.90;;;;;;4962215;28;20286;-76
2024/02/16 06:45:59;;;;;;;9.80;7.33;;;10.40;99.90;;;;;;4959872;28;20207;-75
2024/02/16 06:48:26;;;;;;;7.87;7.03;;;10.40;99.90;;;;;;4956597;28;20856;-76
2024/02/16 06:50:53;;;;;;;8.30;7.30;;;10.40;99.90;;;;;;4957447;28;20329;-76
2024/02/16 06:53:20;;;;;;;8.13;7.33;;;10.40;99.90;;;;;;4957662;28;20662;-76
2024/02/16 06:55:49;;;;;;;7.67;6.97;;;10.40;99.90;;;;;;4960067;28;21042;-75
2024/02/16 06:58:16;;;;;;;8.50;6.93;;;10.40;99.90;;;;;;4959518;28;20227;-75
2024/02/16 07:00:43;;;;;;;7.67;6.97;;;10.40;99.90;;;;;;4958625;28;20298;-75
2024/02/16 07:03:10;;;;;;;8.13;6.60;;;10.40;99.90;;;;;;4958902;28;20203;-75
2024/02/16 07:05:37;;;;;;;7.43;6.73;;;10.40;99.90;;;;;;4954674;28;20313;-75
2024/02/16 07:08:06;;;;;;;7.03;6.43;;;10.50;99.90;;;;;;4958096;28;20203;-75
2024/02/16 07:10:33;;;;;;;7.60;6.90;;;10.50;99.90;;;;;;4957841;28;20211;-75
2024/02/16 07:13:01;;;;;;;7.47;6.70;;;10.40;99.90;;;;;;4955561;28;20666;-75
2024/02/16 07:15:28;;;;;;;7.73;7.03;;;10.50;99.90;;;;;;4958039;28;20450;-75
2024/02/16 07:17:55;;;;;;;6.83;6.30;;;10.50;99.90;;;;;;4956447;28;20241;-75
2024/02/16 07:20:22;;;;;;;7.13;6.43;;;10.50;99.90;;;;;;4956244;28;20306;-75
2024/02/16 07:22:51;;;;;;;7.30;6.60;;;10.50;99.90;;;;;;4958020;28;20264;-75
2024/02/16 07:25:18;;;;;;;7.57;6.77;;;10.50;99.90;;;;;;4958965;28;20322;-75
2024/02/16 07:27:45;;;;;;;7.27;6.53;;;10.50;99.90;;;;;;4957086;28;20212;-75
2024/02/16 07:30:14;;;;;;;8.00;7.07;;;10.50;99.90;;;;;;4960574;28;20572;-75
2024/02/16 07:32:41;;;;;;;7.47;6.60;;;10.60;99.90;;;;;;4958621;28;20790;-75
2024/02/16 07:35:10;;;;;;;6.97;6.23;;;10.60;99.90;;;;;;4956622;28;20239;-75
2024/02/16 07:37:37;;;;;;;6.70;6.10;;;10.60;99.90;;;;;;4956621;28;20227;-75
2024/02/16 07:40:06;;;;;;;7.70;6.20;;;10.60;99.90;;;;;;4955896;28;20290;-75
2024/02/16 07:42:33;;;;;;;6.90;6.23;;;10.60;99.90;;;;;;4958076;28;20203;-76
2024/02/16 07:45:00;;;;;;;6.77;6.03;;;10.70;99.90;;;;;;4958057;28;20289;-75
2024/02/16 07:47:28;;;;;;;7.33;6.30;;;10.70;99.90;;;;;;4957408;28;20214;-75
2024/02/16 07:49:55;;;;;;;6.90;6.30;;;10.80;99.90;;;;;;4957253;28;20232;-75
2024/02/16 07:52:22;;;;;;;7.00;6.30;;;10.90;99.90;;;;;;4958254;28;20234;-75
2024/02/16 07:54:51;;;;;;;9.33;5.97;;;11.00;99.90;;;;;;4956598;28;20200;-75
2024/02/16 07:57:18;;;;;;;6.43;5.83;;;11.00;99.90;;;;;;4957013;28;20297;-75
2024/02/16 07:59:45;;;;;;;6.17;5.57;;;11.00;99.90;;;;;;4955748;28;20339;-75
2024/02/16 08:02:15;;;;;;;6.30;5.70;;;11.00;99.90;;;;;;4955792;28;20817;-75
2024/02/16 08:04:44;;;;;;;6.17;5.57;;;11.00;99.90;;;;;;4958927;28;20208;-75
2024/02/16 08:07:10;;;;;;;6.70;5.73;;;11.00;99.90;;;;;;4953584;28;20239;-75
2024/02/16 08:09:37;;;;;;;5.67;5.17;;;11.00;99.90;;;;;;4958511;28;20286;-75
2024/02/16 08:12:06;;;;;;;6.23;5.43;;;11.00;99.90;;;;;;4954415;28;20670;-75
2024/02/16 08:14:33;;;;;;;5.63;5.03;;;11.10;99.90;;;;;;4954261;28;20297;-75
2024/02/16 08:17:00;;;;;;;5.73;5.20;;;11.10;99.90;;;;;;4969014;28;20296;-76
2024/02/16 08:19:33;;;;;;;6.13;5.53;;;11.20;99.90;;;;;;4971086;28;20285;-76
2024/02/16 08:22:02;;;;;;;5.87;5.37;;;11.30;99.90;;;;;;4962345;28;20208;-75
2024/02/16 08:24:28;;;;;;;5.47;4.97;;;11.20;99.90;;;;;;4952125;28;20265;-76
2024/02/16 08:26:56;;;;;;;8.60;5.73;;;11.20;99.90;;;;;;4964329;28;20683;-75
2024/02/16 08:29:23;;;;;;;5.17;4.77;;;11.30;99.90;;;;;;4967931;28;20294;-75
2024/02/16 08:31:51;;;;;;;5.50;5.00;;;11.30;99.90;;;;;;4963960;28;20235;-75
2024/02/16 08:34:18;;;;;;;5.63;5.13;;;11.20;99.90;;;;;;4956010;28;20585;-75
2024/02/16 08:36:45;;;;;;;9.27;5.30;;;11.20;99.90;;;;;;4954059;28;20208;-75
2024/02/16 08:39:14;;;;;;;5.93;5.00;;;11.20;99.90;;;;;;4957224;28;20698;-75
2024/02/16 08:41:41;;;;;;;5.97;5.10;;;11.20;99.90;;;;;;4962438;28;20286;-76
2024/02/16 08:44:10;;;;;;;5.13;4.73;;;11.30;99.90;;;;;;4959871;28;20758;-76
2024/02/16 08:46:37;;;;;;;5.40;5.00;;;11.30;99.90;;;;;;4959639;28;20207;-76
2024/02/16 08:49:04;;;;;;;5.17;4.67;;;11.30;99.90;;;;;;4961309;28;20735;-75
2024/02/16 08:51:32;;;;;;;4.70;4.30;;;11.30;99.90;;;;;;4964185;28;20277;-75
2024/02/16 08:53:59;;;;;;;4.50;4.10;;;11.30;99.90;;;;;;4959055;28;20306;-76
2024/02/16 08:56:28;;;;;;;10.90;4.30;;;11.30;99.90;;;;;;4962943;28;20840;-75
2024/02/16 08:58:55;;;;;;;4.37;4.03;;;11.30;99.90;;;;;;4957051;28;20334;-75
2024/02/16 09:01:31;;;;;;;5.60;4.20;;;11.40;99.90;;;;;;4958681;28;20617;-76
2024/02/16 09:03:58;;;;;;;4.37;3.97;;;11.40;99.90;;;;;;4961905;28;20210;-76
2024/02/16 09:06:25;;;;;;;8.00;3.90;;;11.40;99.90;;;;;;4964956;28;20293;-75
2024/02/16 09:08:52;;;;;;;4.77;3.80;;;11.40;99.90;;;;;;4963782;28;20206;-75
2024/02/16 09:11:19;;;;;;;4.17;3.77;;;11.40;99.90;;;;;;4965091;28;20546;-75
2024/02/16 09:13:48;;;;;;;4.60;3.63;;;11.50;99.90;;;;;;4969823;28;20735;-76
2024/02/16 09:16:15;;;;;;;4.10;3.80;;;11.50;99.90;;;;;;4964089;28;20286;-75
2024/02/16 09:18:42;;;;;;;3.87;3.57;;;11.60;99.90;;;;;;4960692;28;20329;-76
2024/02/16 09:21:09;;;;;;;4.03;3.73;;;11.70;99.90;;;;;;4959081;28;20291;-76
2024/02/16 09:23:37;;;;;;;3.77;3.47;;;11.70;99.90;;;;;;4958319;28;20235;-76
2024/02/16 09:26:04;;;;;;;4.20;3.43;;;11.80;99.90;;;;;;4960992;28;20207;-75
2024/02/16 09:28:31;;;;;;;4.10;3.63;;;11.90;99.90;;;;;;4960104;28;20293;-76
2024/02/16 09:31:00;;;;;;;3.67;3.37;;;11.90;99.90;;;;;;4958114;28;20220;-76
2024/02/16 09:33:27;;;;;;;3.80;3.40;;;12.00;99.90;;;;;;4961040;28;20241;-76
2024/02/16 09:35:55;;;;;;;4.00;3.43;;;11.90;99.90;;;;;;4959661;28;20686;-76
2024/02/16 09:38:22;;;;;;;3.90;3.60;;;11.90;99.90;;;;;;4960633;28;20227;-75
2024/02/16 09:40:49;;;;;;;3.67;3.37;;;11.90;99.90;;;;;;4959021;28;20199;-76
2024/02/16 09:43:25;;;;;;;3.40;3.20;;;11.90;99.90;;;;;;4961912;28;20203;-75
2024/02/16 09:45:55;;;;;;;3.90;3.60;;;11.90;99.90;;;;;;4959133;28;20211;-75
2024/02/16 09:48:23;;;;;;;7.60;3.07;;;11.90;99.90;;;;;;4958816;28;20294;-75
2024/02/16 09:50:52;;;;;;;4.13;3.50;;;11.90;99.90;;;;;;4958849;28;20310;-75
2024/02/16 09:53:22;;;;;;;4.50;3.80;;;12.00;99.90;;;;;;4958917;28;20207;-75
2024/02/16 09:55:50;;;;;;;4.00;3.23;;;12.00;99.90;;;;;;4960621;28;20203;-76
2024/02/16 09:58:18;;;;;;;4.10;3.27;;;12.00;99.90;;;;;;4960765;28;20239;-75
2024/02/16 10:00:50;;;;;;;3.40;3.10;;;12.00;99.90;;;;;;4956428;28;20204;-76
2024/02/16 10:03:25;;;;;;;3.57;3.27;;;12.10;99.90;;;;;;4961045;28;20312;-75
2024/02/16 10:05:52;;;;;;;3.53;3.23;;;12.10;99.90;;;;;;4959879;28;20238;-75
2024/02/16 10:08:19;;;;;;;4.23;3.07;;;12.10;99.90;;;;;;4962678;28;20214;-76
2024/02/16 10:10:47;;;;;;;3.67;3.43;;;12.00;99.90;;;;;;4958675;28;20673;-75
2024/02/16 10:13:14;;;;;;;5.80;3.57;;;12.00;99.90;;;;;;4962053;28;20203;-75
2024/02/16 10:15:41;;;;;;;3.90;3.03;;;12.10;99.90;;;;;;4959629;28;20231;-75
2024/02/16 10:18:08;;;;;;;3.37;3.17;;;12.10;99.90;;;;;;4957559;28;20330;-76
2024/02/16 10:20:39;;;;;;;3.50;3.20;;;12.20;99.90;;;;;;4959208;28;20630;-75
2024/02/16 10:23:09;;;;;;;3.50;3.13;;;12.10;99.90;;;;;;4961928;28;20337;-75
2024/02/16 10:25:38;;;;;;;3.43;3.23;;;12.20;99.90;;;;;;4958333;28;20697;-75
2024/02/16 10:28:06;;;;;;;3.83;3.40;;;12.20;99.90;;;;;;4957717;28;20323;-75
2024/02/16 10:30:37;;;;;;;3.33;3.10;;;12.20;99.90;;;;;;4961044;28;20211;-75
2024/02/16 10:33:05;;;;;;;5.33;3.30;;;12.10;99.90;;;;;;4957254;28;20198;-75
2024/02/16 10:35:35;;;;;;;3.97;3.67;;;12.10;99.90;;;;;;4959866;28;20289;-75
2024/02/16 10:38:06;;;;;;;3.80;3.50;;;12.10;99.90;;;;;;4959103;28;20748;-75
2024/02/16 10:40:34;;;;;;;3.53;3.33;;;12.10;99.90;;;;;;4956479;28;20282;-75
2024/02/16 10:43:05;;;;;;;3.90;3.40;;;12.10;99.90;;;;;;4959961;28;20215;-75
2024/02/16 10:45:35;;;;;;;3.53;3.23;;;12.20;99.90;;;;;;4957950;28;20274;-75
2024/02/16 10:48:02;;;;;;;3.73;3.40;;;12.20;99.90;;;;;;4955034;28;20903;-75
2024/02/16 10:50:29;;;;;;;4.33;3.43;;;12.20;99.90;;;;;;4961838;28;20223;-75
2024/02/16 10:52:58;;;;;;;3.67;3.33;;;12.20;99.90;;;;;;4958321;28;20242;-76
2024/02/16 10:55:26;;;;;;;3.93;3.50;;;12.20;99.90;;;;;;4967934;28;20262;-76
2024/02/16 10:57:55;;;;;;;7.37;3.50;;;12.20;99.90;;;;;;4957999;28;20744;-75
2024/02/16 11:00:22;;;;;;;3.23;3.03;;;12.30;99.90;;;;;;4959019;28;20676;-76
2024/02/16 11:02:55;;;;;;;5.50;3.10;;;12.30;99.90;;;;;;4959458;28;20206;-75
2024/02/16 11:05:33;;;;;;;6.20;3.23;;;12.40;99.90;;;;;;4959685;28;20641;-76
2024/02/16 11:08:02;;;;;;;3.07;2.87;;;12.50;99.90;;;;;;4959646;28;20205;-75
2024/02/16 11:10:30;;;;;;;3.80;3.50;;;12.50;99.90;;;;;;4962310;28;20203;-75
2024/02/16 11:13:03;;;;;;;3.70;3.40;;;12.60;99.90;;;;;;4960318;28;20278;-75
2024/02/16 11:15:31;;;;;;;3.60;3.30;;;12.70;99.90;;;;;;4957622;28;20191;-75
2024/02/16 11:17:59;;;;;;;3.13;2.90;;;12.80;99.90;;;;;;4962813;28;20278;-75
2024/02/16 11:20:26;;;;;;;3.80;3.50;;;12.90;99.90;;;;;;4962570;28;20733;-75
2024/02/16 11:22:54;;;;;;;3.73;3.03;;;12.90;99.90;;;;;;4958741;28;20239;-75
2024/02/16 11:25:32;;;;;;;3.70;2.90;;;13.00;99.90;;;;;;4957054;28;20298;-75
2024/02/16 11:27:59;;;;;;;3.73;3.30;;;13.00;99.90;;;;;;4955285;28;20205;-75
2024/02/16 11:30:26;;;;;;;3.20;2.83;;;13.10;99.90;;;;;;4953365;28;20767;-75
2024/02/16 11:32:53;;;;;;;4.13;3.00;;;13.20;99.90;;;;;;4959931;28;20217;-75
2024/02/16 11:35:20;;;;;;;3.73;3.23;;;13.30;99.90;;;;;;4959884;28;20210;-75
2024/02/16 11:37:47;;;;;;;3.40;3.20;;;13.50;99.90;;;;;;4947770;29;21052;-75
2024/02/16 11:40:14;;;;;;;3.20;2.90;;;13.70;99.90;;;;;;4948234;28;20368;-76
2024/02/16 11:42:46;;;;;;;3.20;3.00;;;13.90;99.90;;;;;;4948510;29;20306;-75
2024/02/16 11:45:13;;;;;;;3.63;3.10;;;13.90;99.90;;;;;;4948777;29;20204;-75
2024/02/16 11:47:40;;;;;;;3.43;3.17;;;13.90;99.90;;;;;;4948269;29;20207;-75
2024/02/16 11:50:10;;;;;;;6.17;3.20;;;13.80;99.90;;;;;;4948107;28;20330;-75
2024/02/16 11:52:38;;;;;;;4.43;2.87;;;13.80;99.90;;;;;;4948068;29;20210;-75
2024/02/16 11:55:09;;;;;;;3.13;2.93;;;13.80;99.90;;;;;;4953045;28;20199;-75
2024/02/16 11:57:36;;;;;;;3.20;3.00;;;13.80;99.90;;;;;;4948140;28;20204;-75
2024/02/16 12:00:10;;;;;;;5.23;2.80;;;13.80;99.90;;;;;;4957433;28;20253;-75
2024/02/16 12:02:37;;;;;;;5.87;3.00;;;14.00;99.90;;;;;;4961932;28;20207;-75
2024/02/16 12:05:05;;;;;;;4.83;2.90;;;14.10;99.90;;;;;;4958318;28;20217;-75
2024/02/16 12:07:33;;;;;;;3.23;2.90;;;14.10;99.90;;;;;;4957761;28;20209;-75
2024/02/16 12:10:04;;;;;;;3.47;2.80;;;14.00;99.90;;;;;;4956037;28;20210;-75
2024/02/16 12:12:32;;;;;;;3.00;2.67;;;13.90;99.90;;;;;;4959235;28;20278;-75
2024/02/16 12:14:59;;;;;;;3.10;2.70;;;13.90;99.90;;;;;;4958748;28;20734;-75
2024/02/16 12:17:28;;;;;;;2.70;2.50;;;13.80;99.90;;;;;;4958672;28;20210;-75
2024/02/16 12:19:55;;;;;;;2.93;2.63;;;13.70;99.90;;;;;;4956392;28;20314;-75
2024/02/16 12:22:22;;;;;;;2.70;2.60;;;13.70;99.90;;;;;;4957629;28;20290;-75
2024/02/16 12:24:50;;;;;;;2.33;2.20;;;13.90;99.90;;;;;;4956053;28;20346;-75
2024/02/16 12:27:18;;;;;;;3.90;2.40;;;13.90;99.90;;;;;;4954016;28;20206;-75
2024/02/16 12:29:46;;;;;;;2.27;2.17;;;13.90;99.90;;;;;;4955434;28;20718;-75
2024/02/16 12:32:18;;;;;;;3.40;2.40;;;13.90;99.90;;;;;;4955235;28;20550;-75
2024/02/16 12:34:46;;;;;;;2.47;2.33;;;13.90;99.90;;;;;;4955383;28;20212;-75
2024/02/16 12:37:13;;;;;;;2.40;2.20;;;13.90;99.90;;;;;;4964347;28;20670;-75
2024/02/16 12:39:40;;;;;;;2.37;2.07;;;13.90;99.90;;;;;;4953786;28;20314;-75
2024/02/16 12:42:07;;;;;;;2.20;2.00;;;13.80;99.90;;;;;;4957566;28;20215;-76
2024/02/16 12:44:34;;;;;;;2.03;1.93;;;13.80;99.90;;;;;;4955172;28;20949;-75
2024/02/16 12:47:01;;;;;;;4.73;2.20;;;13.80;99.90;;;;;;4954025;28;20322;-75